createdAt,value
2023-04-27T00:01:17.055Z,9.33
2023-04-27T00:03:43.962Z,10.00
2023-04-27T00:06:10.991Z,10.47
2023-04-27T00:08:38.121Z,9.33
2023-04-27T00:11:05.262Z,10.77
2023-04-27T00:13:32.113Z,9.87
2023-04-27T00:16:01.352Z,9.97
2023-04-27T00:18:28.335Z,10.00
2023-04-27T00:20:55.187Z,10.70
2023-04-27T00:23:22.197Z,10.67
2023-04-27T00:25:49.030Z,11.07
2023-04-27T00:28:15.971Z,9.80
2023-04-27T00:30:43.007Z,10.63
2023-04-27T00:33:09.866Z,9.93
2023-04-27T00:35:36.881Z,10.87
2023-04-27T00:38:03.782Z,10.90
2023-04-27T00:40:30.630Z,9.50
2023-04-27T00:42:57.573Z,10.20
2023-04-27T00:45:24.573Z,9.60
2023-04-27T00:47:51.679Z,10.40
2023-04-27T00:50:30.002Z,9.80
2023-04-27T00:52:57.652Z,10.33
2023-04-27T00:55:24.715Z,11.73
2023-04-27T00:57:51.851Z,10.30
2023-04-27T01:00:18.934Z,10.57
2023-04-27T01:02:46.096Z,10.00
2023-04-27T01:05:13.582Z,9.33
2023-04-27T01:07:41.713Z,10.80
2023-04-27T01:10:09.446Z,10.20
2023-04-27T01:12:36.411Z,11.33
2023-04-27T01:15:03.455Z,10.97
2023-04-27T01:17:30.369Z,10.93
2023-04-27T01:19:57.202Z,11.33
2023-04-27T01:22:24.125Z,10.27
2023-04-27T01:24:51.002Z,11.03
2023-04-27T01:27:17.961Z,11.40
2023-04-27T01:29:44.841Z,10.83
2023-04-27T01:32:11.736Z,11.77
2023-04-27T01:34:38.918Z,11.53
2023-04-27T01:37:05.803Z,11.70
2023-04-27T01:39:33.038Z,12.80
2023-04-27T01:41:59.923Z,13.83
2023-04-27T01:44:26.737Z,11.83
2023-04-27T01:46:53.617Z,12.73
2023-04-27T01:49:20.447Z,11.63
2023-04-27T01:51:47.307Z,13.30
2023-04-27T01:54:14.216Z,11.27
2023-04-27T01:56:41.184Z,13.07
2023-04-27T01:59:08.032Z,13.40
2023-04-27T02:01:35.043Z,13.10
2023-04-27T02:04:02.091Z,12.23
2023-04-27T02:06:29.103Z,12.53
2023-04-27T02:08:55.964Z,11.17
2023-04-27T02:11:22.714Z,12.10
2023-04-27T02:13:49.656Z,11.77
2023-04-27T02:16:16.520Z,11.37
2023-04-27T02:18:43.464Z,12.60
2023-04-27T02:21:11.030Z,11.27
2023-04-27T02:23:38.090Z,10.80
2023-04-27T02:26:05.039Z,11.67
2023-04-27T02:28:32.065Z,10.23
2023-04-27T02:30:59.464Z,11.40
2023-04-27T02:33:26.284Z,11.60
2023-04-27T02:35:53.186Z,12.00
2023-04-27T02:38:20.045Z,11.93
2023-04-27T02:40:46.924Z,10.70
2023-04-27T02:43:13.859Z,10.87
2023-04-27T02:45:40.746Z,11.87
2023-04-27T02:48:07.618Z,10.53
2023-04-27T02:50:34.544Z,11.30
2023-04-27T02:53:01.373Z,10.40
2023-04-27T02:55:28.284Z,11.63
2023-04-27T02:57:55.134Z,11.30
2023-04-27T03:00:22.293Z,11.23
2023-04-27T03:02:49.242Z,12.20
2023-04-27T03:05:16.641Z,9.40
2023-04-27T03:07:43.684Z,10.77
2023-04-27T03:10:11.177Z,10.60
2023-04-27T03:12:38.101Z,10.57
2023-04-27T03:15:05.667Z,10.83
2023-04-27T03:17:32.615Z,10.03
2023-04-27T03:19:59.565Z,9.47
2023-04-27T03:22:26.455Z,9.90
2023-04-27T03:24:53.361Z,8.40
2023-04-27T03:27:20.251Z,9.20
2023-04-27T03:29:47.165Z,8.40
2023-04-27T03:32:14.032Z,7.67
2023-04-27T03:34:40.902Z,8.73
2023-04-27T03:37:07.714Z,8.20
2023-04-27T03:39:34.541Z,8.47
2023-04-27T03:42:01.392Z,7.70
2023-04-27T03:44:28.295Z,9.00
2023-04-27T03:46:55.182Z,8.30
2023-04-27T03:49:21.982Z,7.87
2023-04-27T03:51:49.037Z,8.47
2023-04-27T03:54:15.823Z,7.57
2023-04-27T03:56:42.761Z,7.60
2023-04-27T03:59:09.818Z,7.97
2023-04-27T04:01:36.903Z,8.30
2023-04-27T04:04:04.305Z,8.10
2023-04-27T04:06:31.301Z,8.03
2023-04-27T04:08:58.150Z,8.63
2023-04-27T04:11:25.190Z,8.10
2023-04-27T04:13:52.019Z,8.57
2023-04-27T04:16:19.031Z,7.67
2023-04-27T04:18:46.051Z,8.83
2023-04-27T04:21:12.903Z,8.23
2023-04-27T04:23:39.872Z,7.50
2023-04-27T04:26:07.353Z,8.73
2023-04-27T04:28:34.188Z,7.70
2023-04-27T04:31:02.090Z,7.37
2023-04-27T04:33:29.001Z,8.70
2023-04-27T04:35:55.891Z,7.47
2023-04-27T04:38:22.797Z,8.43
2023-04-27T04:40:49.681Z,8.17
2023-04-27T04:43:16.513Z,7.03
2023-04-27T04:45:43.485Z,8.33
2023-04-27T04:48:10.372Z,7.70
2023-04-27T04:50:37.275Z,7.80
2023-04-27T04:53:04.121Z,7.97
2023-04-27T04:55:30.964Z,7.60
2023-04-27T04:57:57.778Z,8.07
2023-04-27T05:00:24.742Z,7.03
2023-04-27T05:02:52.324Z,8.57
2023-04-27T05:05:19.352Z,7.40
2023-04-27T05:07:46.171Z,7.10
2023-04-27T05:10:13.043Z,8.60
2023-04-27T05:12:39.951Z,7.73
2023-04-27T05:15:07.879Z,7.33
2023-04-27T05:17:34.768Z,8.80
2023-04-27T05:20:01.804Z,7.33
2023-04-27T05:22:28.693Z,7.80
2023-04-27T05:24:55.582Z,7.40
2023-04-27T05:27:22.511Z,8.50
2023-04-27T05:29:49.380Z,8.37
2023-04-27T05:32:16.301Z,7.80
2023-04-27T05:34:43.162Z,7.10
2023-04-27T05:37:09.996Z,6.13
2023-04-27T05:39:36.911Z,6.60
2023-04-27T05:42:03.956Z,6.37
2023-04-27T05:44:30.806Z,6.60
2023-04-27T05:46:57.668Z,7.33
2023-04-27T05:49:24.585Z,6.40
2023-04-27T05:51:51.496Z,7.63
2023-04-27T05:54:18.441Z,7.40
2023-04-27T05:56:45.314Z,7.47
2023-04-27T05:59:12.784Z,8.07
2023-04-27T06:01:39.822Z,7.50
2023-04-27T06:04:06.680Z,7.83
2023-04-27T06:06:34.931Z,7.00
2023-04-27T06:09:01.896Z,7.07
2023-04-27T06:11:28.858Z,7.13
2023-04-27T06:13:55.804Z,7.67
2023-04-27T06:16:24.040Z,6.83
2023-04-27T06:18:51.321Z,6.57
2023-04-27T06:21:18.439Z,6.73
2023-04-27T06:23:45.272Z,6.03
2023-04-27T06:26:12.111Z,6.33
2023-04-27T06:28:38.885Z,5.80
2023-04-27T06:31:06.079Z,7.73
2023-04-27T06:33:33.520Z,5.97
2023-04-27T06:36:01.519Z,6.80
2023-04-27T06:38:28.422Z,6.00
2023-04-27T06:40:55.337Z,5.97
2023-04-27T06:43:22.918Z,6.40
2023-04-27T06:45:49.816Z,7.43
2023-04-27T06:48:17.308Z,5.40
2023-04-27T06:50:44.358Z,6.50
2023-04-27T06:53:11.170Z,6.77
2023-04-27T06:55:38.312Z,6.20
2023-04-27T06:58:05.394Z,6.20
2023-04-27T07:00:32.648Z,6.53
2023-04-27T07:02:59.627Z,6.47
2023-04-27T07:05:26.572Z,7.37
2023-04-27T07:07:53.545Z,6.10
2023-04-27T07:10:20.622Z,7.30
2023-04-27T07:12:47.520Z,6.50
2023-04-27T07:15:14.283Z,6.20
2023-04-27T07:17:41.192Z,6.67
2023-04-27T07:20:09.212Z,6.90
2023-04-27T07:22:36.126Z,6.60
2023-04-27T07:25:02.998Z,6.30
2023-04-27T07:27:29.852Z,6.80
2023-04-27T07:29:56.699Z,6.30
2023-04-27T07:32:23.506Z,6.47
2023-04-27T07:34:53.945Z,6.60
2023-04-27T07:37:22.667Z,6.60
2023-04-27T07:39:51.227Z,6.20
2023-04-27T07:42:18.878Z,7.23
2023-04-27T07:44:45.798Z,6.83
2023-04-27T07:47:12.624Z,6.83
2023-04-27T07:49:39.403Z,7.17
2023-04-27T07:52:06.225Z,7.03
2023-04-27T07:54:33.118Z,5.80
2023-04-27T07:56:59.970Z,5.77
2023-04-27T07:59:30.874Z,5.63
2023-04-27T08:02:14.906Z,6.73
2023-04-27T08:04:44.989Z,7.10
2023-04-27T08:07:12.090Z,7.30
2023-04-27T08:09:39.799Z,6.50
2023-04-27T08:12:06.733Z,7.20
2023-04-27T08:14:36.738Z,6.50
2023-04-27T08:17:03.891Z,7.57
2023-04-27T08:19:30.883Z,6.20
2023-04-27T08:21:57.630Z,6.70
2023-04-27T08:24:24.599Z,6.67
2023-04-27T08:26:51.550Z,6.23
2023-04-27T08:29:26.819Z,6.80
2023-04-27T08:31:56.961Z,6.97
2023-04-27T08:34:24.553Z,7.87
2023-04-27T08:36:51.423Z,6.97
2023-04-27T08:39:18.495Z,6.47
2023-04-27T08:41:45.700Z,6.70
2023-04-27T08:44:12.835Z,6.70
2023-04-27T08:46:39.925Z,6.50
2023-04-27T08:49:07.058Z,9.07
2023-04-27T08:51:35.001Z,6.70
2023-04-27T08:54:02.223Z,7.00
2023-04-27T08:56:30.492Z,7.50
2023-04-27T08:58:59.166Z,7.47
2023-04-27T09:01:26.747Z,7.00
2023-04-27T09:04:00.309Z,7.60
2023-04-27T09:06:32.403Z,7.37
2023-04-27T09:09:00.764Z,7.70
2023-04-27T09:11:33.201Z,7.80
2023-04-27T09:14:15.116Z,6.00
2023-04-27T09:16:43.419Z,7.10
2023-04-27T09:19:10.661Z,7.10
2023-04-27T09:21:37.620Z,7.53
2023-04-27T09:24:14.401Z,6.90
2023-04-27T09:26:41.365Z,6.83
2023-04-27T09:29:08.352Z,8.37
2023-04-27T09:31:36.333Z,6.70
2023-04-27T09:34:04.137Z,6.80
2023-04-27T09:36:32.445Z,7.23
2023-04-27T09:39:03.907Z,7.73
2023-04-27T09:41:32.792Z,7.30
2023-04-27T09:44:00.775Z,6.10
2023-04-27T09:46:29.665Z,5.53
2023-04-27T09:48:57.795Z,6.60
2023-04-27T09:51:24.753Z,5.37
2023-04-27T09:53:59.075Z,4.23
2023-04-27T09:56:51.647Z,4.13
2023-04-27T09:59:50.799Z,4.53
2023-04-27T10:02:25.158Z,5.00
2023-04-27T10:05:40.192Z,4.73
2023-04-27T10:08:07.371Z,4.20
2023-04-27T10:10:53.727Z,4.27
2023-04-27T10:13:26.291Z,3.80
2023-04-27T10:15:54.164Z,5.20
2023-04-27T10:18:31.380Z,5.00
2023-04-27T10:21:10.726Z,4.50
2023-04-27T10:23:47.496Z,5.57
2023-04-27T10:26:26.268Z,5.80
2023-04-27T10:29:11.205Z,6.07
2023-04-27T10:31:45.579Z,6.27
2023-04-27T10:34:19.733Z,6.40
2023-04-27T10:36:48.103Z,5.60
2023-04-27T10:39:20.314Z,6.00
2023-04-27T10:41:56.671Z,5.27
2023-04-27T10:44:29.788Z,5.23
2023-04-27T10:47:18.051Z,5.47
2023-04-27T10:49:45.021Z,5.03
2023-04-27T10:52:12.003Z,6.30
2023-04-27T10:54:39.037Z,6.10
2023-04-27T10:57:11.490Z,6.00
2023-04-27T10:59:51.151Z,5.40
2023-04-27T11:02:26.563Z,5.67
2023-04-27T11:04:54.153Z,5.33
2023-04-27T11:07:28.584Z,6.40
2023-04-27T11:09:55.976Z,4.80
2023-04-27T11:12:23.019Z,4.40
2023-04-27T11:14:49.851Z,5.57
2023-04-27T11:17:16.771Z,6.17
2023-04-27T11:19:47.644Z,4.90
2023-04-27T11:22:25.818Z,5.90
2023-04-27T11:24:53.493Z,5.60
2023-04-27T11:27:20.566Z,5.67
2023-04-27T11:29:47.446Z,5.40
2023-04-27T11:32:21.928Z,5.80
2023-04-27T11:34:55.514Z,6.27
2023-04-27T11:37:26.766Z,5.10
2023-04-27T11:40:00.640Z,5.90
2023-04-27T11:42:29.097Z,6.50
2023-04-27T11:45:07.435Z,5.67
2023-04-27T11:47:35.477Z,7.20
2023-04-27T11:50:06.895Z,5.27
2023-04-27T11:52:38.875Z,5.80
2023-04-27T11:55:07.277Z,5.50
2023-04-27T11:57:36.272Z,5.87
2023-04-27T12:00:05.936Z,5.20
2023-04-27T12:02:33.047Z,5.27
2023-04-27T12:05:00.366Z,5.87
2023-04-27T12:07:27.659Z,6.07
2023-04-27T12:09:54.547Z,5.00
2023-04-27T12:12:21.934Z,5.53
2023-04-27T12:14:51.502Z,5.57
2023-04-27T12:17:19.275Z,5.60
2023-04-27T12:19:46.171Z,5.13
2023-04-27T12:22:12.960Z,6.40
2023-04-27T12:24:39.823Z,5.40
2023-04-27T12:27:06.763Z,5.90
2023-04-27T12:29:33.631Z,5.50
2023-04-27T12:32:00.445Z,5.30
2023-04-27T12:34:27.869Z,5.93
2023-04-27T12:36:55.072Z,5.70
2023-04-27T12:39:24.219Z,4.70
2023-04-27T12:41:51.434Z,4.90
2023-04-27T12:44:19.953Z,5.27
2023-04-27T12:46:47.632Z,5.50
2023-04-27T12:49:14.845Z,5.00
2023-04-27T12:51:41.847Z,6.03
2023-04-27T12:54:10.648Z,5.33
2023-04-27T12:56:37.591Z,5.70
2023-04-27T12:59:04.486Z,5.23
2023-04-27T13:01:31.451Z,4.97
2023-04-27T13:04:04.383Z,5.33
2023-04-27T13:06:32.131Z,5.27
2023-04-27T13:09:00.133Z,5.43
2023-04-27T13:11:27.386Z,4.90
2023-04-27T13:13:54.277Z,4.70
2023-04-27T13:16:21.095Z,4.53
2023-04-27T13:18:48.063Z,5.37
2023-04-27T13:21:15.428Z,5.03
2023-04-27T13:23:42.366Z,4.80
2023-04-27T13:26:09.287Z,4.60
2023-04-27T13:28:36.161Z,4.63
2023-04-27T13:31:02.959Z,4.37
2023-04-27T13:33:29.899Z,4.50
2023-04-27T13:35:56.767Z,4.63
2023-04-27T13:38:23.605Z,5.30
2023-04-27T13:40:50.580Z,4.83
2023-04-27T13:43:17.420Z,4.27
2023-04-27T13:45:44.309Z,4.67
2023-04-27T13:48:11.464Z,4.90
2023-04-27T13:50:38.372Z,4.70
2023-04-27T13:53:05.200Z,4.50
2023-04-27T13:55:32.256Z,4.77
2023-04-27T13:57:59.028Z,4.73
2023-04-27T14:00:25.991Z,4.27
2023-04-27T14:02:53.157Z,4.43
2023-04-27T14:05:20.241Z,4.70
2023-04-27T14:07:47.181Z,5.10
2023-04-27T14:10:13.986Z,3.90
2023-04-27T14:12:40.899Z,3.80
2023-04-27T14:15:09.251Z,4.67
2023-04-27T14:17:36.282Z,4.13
2023-04-27T14:20:04.213Z,3.53
2023-04-27T14:22:31.117Z,4.50
2023-04-27T14:24:57.890Z,3.80
2023-04-27T14:27:24.810Z,3.97
2023-04-27T14:29:51.848Z,4.13
2023-04-27T14:32:18.854Z,4.47
2023-04-27T14:34:45.726Z,3.60
2023-04-27T14:37:12.644Z,4.60
2023-04-27T14:39:39.442Z,4.97
2023-04-27T14:42:06.372Z,4.20
2023-04-27T14:44:33.363Z,5.73
2023-04-27T14:47:00.268Z,6.00
2023-04-27T14:49:27.096Z,5.10
2023-04-27T14:51:53.995Z,6.37
2023-04-27T14:54:21.256Z,4.77
2023-04-27T14:56:48.107Z,4.40
2023-04-27T14:59:15.146Z,4.70
2023-04-27T15:01:42.476Z,5.30
2023-04-27T15:04:11.444Z,4.83
2023-04-27T15:06:38.366Z,4.37
2023-04-27T15:09:05.580Z,4.73
2023-04-27T15:11:33.188Z,4.10
2023-04-27T15:14:00.137Z,4.20
2023-04-27T15:16:27.153Z,4.00
2023-04-27T15:18:54.023Z,3.67
2023-04-27T15:21:22.451Z,3.90
2023-04-27T15:23:49.382Z,3.00
2023-04-27T15:26:16.252Z,4.03
2023-04-27T15:28:43.167Z,3.80
2023-04-27T15:31:10.070Z,3.50
2023-04-27T15:33:37.029Z,4.23
2023-04-27T15:36:04.116Z,3.53
2023-04-27T15:38:31.097Z,4.10
2023-04-27T15:40:58.289Z,4.33
2023-04-27T15:43:25.098Z,4.40
2023-04-27T15:45:51.949Z,4.47
2023-04-27T15:48:18.822Z,4.90
2023-04-27T15:50:46.866Z,4.90
2023-04-27T15:53:13.749Z,4.10
2023-04-27T15:55:40.690Z,4.57
2023-04-27T15:58:07.647Z,3.80
2023-04-27T16:00:34.901Z,4.47
2023-04-27T16:03:01.948Z,5.20
2023-04-27T16:05:29.401Z,5.50
2023-04-27T16:07:56.281Z,4.60
2023-04-27T16:10:23.165Z,3.77
2023-04-27T16:12:50.027Z,3.73
2023-04-27T16:15:16.930Z,4.40
2023-04-27T16:17:43.836Z,3.70
2023-04-27T16:20:11.033Z,4.40
2023-04-27T16:22:38.658Z,4.80
2023-04-27T16:25:06.385Z,4.33
2023-04-27T16:27:33.176Z,4.97
2023-04-27T16:30:00.061Z,4.73
2023-04-27T16:32:26.939Z,4.23
2023-04-27T16:34:53.956Z,4.30
2023-04-27T16:37:20.820Z,3.60
2023-04-27T16:39:47.703Z,4.80
2023-04-27T16:42:14.516Z,4.10
2023-04-27T16:44:41.289Z,4.80
2023-04-27T16:47:08.164Z,4.70
2023-04-27T16:49:35.025Z,4.00
2023-04-27T16:52:01.883Z,4.87
2023-04-27T16:54:28.757Z,4.50
2023-04-27T16:56:55.578Z,5.17
2023-04-27T16:59:22.906Z,4.43
2023-04-27T17:01:49.854Z,4.17
2023-04-27T17:04:16.842Z,4.37
2023-04-27T17:06:43.666Z,4.40
2023-04-27T17:09:10.526Z,3.63
2023-04-27T17:11:37.424Z,4.03
2023-04-27T17:14:04.403Z,4.20
2023-04-27T17:16:31.997Z,4.57
2023-04-27T17:18:58.868Z,4.83
2023-04-27T17:21:26.224Z,3.73
2023-04-27T17:23:53.242Z,4.40
2023-04-27T17:26:21.001Z,4.50
2023-04-27T17:28:49.313Z,4.30
2023-04-27T17:31:16.389Z,3.57
2023-04-27T17:33:43.553Z,4.10
2023-04-27T17:36:10.500Z,4.60
2023-04-27T17:38:37.410Z,4.57
2023-04-27T17:41:04.309Z,4.10
2023-04-27T17:43:31.218Z,4.17
2023-04-27T17:45:58.131Z,2.97
2023-04-27T17:48:25.040Z,3.90
2023-04-27T17:50:52.082Z,4.23
2023-04-27T17:53:18.967Z,4.20
2023-04-27T17:55:45.838Z,4.47
2023-04-27T17:58:12.720Z,7.87
2023-04-27T18:00:39.587Z,6.67
2023-04-27T18:03:06.753Z,7.50
2023-04-27T18:05:34.111Z,8.37
2023-04-27T18:08:00.990Z,7.80
2023-04-27T18:10:27.794Z,7.30
2023-04-27T18:12:54.705Z,7.80
2023-04-27T18:15:21.631Z,6.10
2023-04-27T18:17:48.723Z,5.90
2023-04-27T18:20:15.889Z,5.20
2023-04-27T18:22:43.138Z,3.93
2023-04-27T18:25:10.838Z,4.47
2023-04-27T18:27:38.166Z,6.60
2023-04-27T18:30:07.003Z,4.03
2023-04-27T18:32:34.767Z,4.27
2023-04-27T18:35:01.945Z,3.63
2023-04-27T18:37:28.953Z,3.70
2023-04-27T18:39:56.175Z,3.70
2023-04-27T18:42:24.796Z,3.57
2023-04-27T18:44:52.837Z,3.77
2023-04-27T18:47:19.894Z,4.03
2023-04-27T18:49:46.741Z,4.00
2023-04-27T18:52:16.092Z,4.03
2023-04-27T18:54:43.395Z,5.53
2023-04-27T18:57:16.659Z,4.70
2023-04-27T18:59:48.612Z,5.00
2023-04-27T19:02:19.954Z,5.03
2023-04-27T19:04:52.961Z,5.40
2023-04-27T19:07:28.960Z,5.17
2023-04-27T19:09:55.869Z,4.63
2023-04-27T19:12:24.458Z,4.17
2023-04-27T19:14:52.792Z,5.50
2023-04-27T19:17:20.027Z,3.97
2023-04-27T19:19:46.932Z,8.30
2023-04-27T19:22:14.150Z,6.10
2023-04-27T19:24:43.154Z,7.20
2023-04-27T19:27:10.267Z,8.00
2023-04-27T19:29:53.676Z,6.60
2023-04-27T19:32:21.938Z,6.30
2023-04-27T19:34:48.952Z,5.83
2023-04-27T19:37:15.809Z,7.67
2023-04-27T19:39:42.662Z,7.17
2023-04-27T19:42:09.688Z,7.70
2023-04-27T19:44:36.591Z,6.67
2023-04-27T19:47:03.463Z,7.30
2023-04-27T19:49:34.017Z,8.10
2023-04-27T19:52:00.851Z,7.63
2023-04-27T19:54:27.823Z,6.97
2023-04-27T19:56:55.869Z,8.17
2023-04-27T19:59:23.434Z,7.80
2023-04-27T20:01:50.574Z,7.97
2023-04-27T20:04:18.013Z,7.90
2023-04-27T20:06:45.586Z,7.40
2023-04-27T20:09:12.391Z,7.60
2023-04-27T20:11:39.403Z,8.37
2023-04-27T20:14:06.995Z,7.80
2023-04-27T20:16:33.837Z,9.17
2023-04-27T20:19:01.211Z,8.73
2023-04-27T20:21:28.170Z,8.97
2023-04-27T20:23:55.085Z,8.27
2023-04-27T20:26:21.920Z,9.20
2023-04-27T20:28:51.420Z,7.97
2023-04-27T20:31:18.752Z,9.50
2023-04-27T20:33:45.711Z,9.10
2023-04-27T20:36:17.836Z,10.53
2023-04-27T20:38:46.261Z,11.57
2023-04-27T20:41:13.432Z,11.27
2023-04-27T20:43:40.865Z,11.90
2023-04-27T20:46:10.253Z,13.33
2023-04-27T20:48:37.818Z,11.37
2023-04-27T20:51:04.949Z,10.27
2023-04-27T20:53:32.049Z,11.47
2023-04-27T20:55:58.829Z,12.50
2023-04-27T20:58:25.761Z,13.53
2023-04-27T21:00:52.696Z,12.40
2023-04-27T21:03:19.733Z,11.67
2023-04-27T21:05:46.815Z,11.70
2023-04-27T21:08:13.766Z,11.33
2023-04-27T21:10:40.607Z,12.23
2023-04-27T21:13:07.414Z,12.10
2023-04-27T21:15:34.456Z,10.87
2023-04-27T21:18:01.414Z,10.70
2023-04-27T21:20:28.286Z,11.63
2023-04-27T21:22:55.125Z,11.13
2023-04-27T21:25:23.636Z,11.87
2023-04-27T21:27:50.831Z,10.30
2023-04-27T21:30:17.705Z,11.00
2023-04-27T21:32:44.571Z,11.63
2023-04-27T21:35:11.634Z,11.70
2023-04-27T21:37:38.488Z,11.33
2023-04-27T21:40:06.251Z,11.37
2023-04-27T21:42:33.161Z,10.63
2023-04-27T21:45:00.137Z,11.27
2023-04-27T21:47:27.064Z,10.97
2023-04-27T21:49:54.104Z,10.60
2023-04-27T21:52:20.925Z,11.20
2023-04-27T21:54:47.809Z,10.30
2023-04-27T21:57:14.652Z,10.80
2023-04-27T21:59:41.477Z,10.87
2023-04-27T22:02:08.587Z,12.83
2023-04-27T22:04:37.477Z,11.30
2023-04-27T22:07:06.464Z,10.70
2023-04-27T22:09:33.608Z,10.80
2023-04-27T22:12:00.474Z,9.43
2023-04-27T22:14:27.324Z,11.30
2023-04-27T22:16:54.233Z,10.53
2023-04-27T22:19:21.405Z,11.07
2023-04-27T22:21:48.201Z,11.87
2023-04-27T22:24:15.197Z,11.47
2023-04-27T22:26:42.528Z,10.70
2023-04-27T22:29:09.544Z,12.23
2023-04-27T22:31:36.583Z,13.07
2023-04-27T22:34:03.531Z,11.93
2023-04-27T22:36:30.398Z,12.63
2023-04-27T22:38:57.310Z,11.83
2023-04-27T22:41:24.182Z,11.80
2023-04-27T22:43:51.011Z,11.37
2023-04-27T22:46:17.895Z,10.10
2023-04-27T22:48:44.760Z,12.70
2023-04-27T22:51:12.450Z,12.40
2023-04-27T22:53:39.260Z,10.63
2023-04-27T22:56:06.917Z,11.60
2023-04-27T22:58:33.814Z,12.20
2023-04-27T23:01:00.731Z,11.23
2023-04-27T23:03:27.942Z,12.77
2023-04-27T23:05:55.154Z,11.00
2023-04-27T23:08:22.909Z,12.60
2023-04-27T23:10:49.717Z,12.27
2023-04-27T23:13:16.570Z,12.83
2023-04-27T23:15:43.419Z,13.07
2023-04-27T23:18:10.274Z,12.27
2023-04-27T23:20:37.226Z,11.90
2023-04-27T23:23:05.259Z,11.60
2023-04-27T23:25:33.436Z,12.73
2023-04-27T23:28:00.272Z,11.83
2023-04-27T23:30:27.116Z,12.10
2023-04-27T23:32:53.947Z,12.40
2023-04-27T23:35:21.217Z,14.03
2023-04-27T23:37:48.109Z,13.00
2023-04-27T23:40:15.166Z,12.73
2023-04-27T23:42:42.023Z,12.20
2023-04-27T23:45:09.416Z,13.77
2023-04-27T23:47:36.195Z,13.23
2023-04-27T23:50:03.245Z,12.67
2023-04-27T23:52:30.082Z,11.50
2023-04-27T23:54:58.490Z,12.00
2023-04-27T23:57:25.393Z,11.97
2023-04-27T23:59:52.292Z,13.10
